Terminal Aerodrome Forecast
Issued by NWS

Home | Current Version | Previous Version | Text Only | Print | Product List | Glossary On
Versions: 1 2 3 4 5 6 7 8 9 10 11 12 13 14
000
FTUS45 KVEF 030500
TAFBIH
TAF
KBIH 030520Z 0306/0406 VRB05KT P6SM FEW060 SCT090
     FM031700 36010G18KT P6SM FEW090
     FM032000 36020G30KT P6SM SKC=

USA.gov is the U.S. government's official web portal to all federal, state and local government web resources and services.